sensor_id;sensor_type;location;lat;lon;timestamp;pressure;altitude;pressure_sealevel;temperature;humidity
62634;BME280;48704;50.534;6.442;2023-02-23T00:00:18;95073.34;;;7.24;100.00
62634;BME280;48704;50.534;6.442;2023-02-23T00:02:52;95084.47;;;7.15;100.00
62634;BME280;48704;50.534;6.442;2023-02-23T00:05:17;95080.63;;;7.13;100.00
62634;BME280;48704;50.534;6.442;2023-02-23T00:07:44;95085.00;;;6.95;100.00
62634;BME280;48704;50.534;6.442;2023-02-23T00:10:13;95083.44;;;7.03;100.00
62634;BME280;48704;50.534;6.442;2023-02-23T00:12:40;95088.47;;;7.14;100.00
62634;BME280;48704;50.534;6.442;2023-02-23T00:15:06;95087.25;;;7.15;100.00
62634;BME280;48704;50.534;6.442;2023-02-23T00:17:32;95082.75;;;7.27;100.00
62634;BME280;48704;50.534;6.442;2023-02-23T00:20:01;95088.00;;;7.16;100.00
62634;BME280;48704;50.534;6.442;2023-02-23T00:22:31;95083.50;;;7.27;100.00
62634;BME280;48704;50.534;6.442;2023-02-23T00:24:56;95086.63;;;7.11;100.00
62634;BME280;48704;50.534;6.442;2023-02-23T00:27:22;95081.38;;;7.22;100.00
62634;BME280;48704;50.534;6.442;2023-02-23T00:29:50;95079.19;;;7.26;100.00
62634;BME280;48704;50.534;6.442;2023-02-23T00:32:18;95081.00;;;7.38;100.00
62634;BME280;48704;50.534;6.442;2023-02-23T00:34:44;95079.81;;;7.30;100.00
62634;BME280;48704;50.534;6.442;2023-02-23T00:37:13;95080.75;;;7.18;100.00
62634;BME280;48704;50.534;6.442;2023-02-23T00:39:39;95077.09;;;7.12;100.00
62634;BME280;48704;50.534;6.442;2023-02-23T00:42:04;95072.66;;;7.05;100.00
62634;BME280;48704;50.534;6.442;2023-02-23T00:44:31;95080.25;;;6.96;100.00
62634;BME280;48704;50.534;6.442;2023-02-23T00:47:00;95076.06;;;7.00;100.00
62634;BME280;48704;50.534;6.442;2023-02-23T00:49:25;95073.72;;;7.08;100.00
62634;BME280;48704;50.534;6.442;2023-02-23T00:51:53;95076.25;;;7.30;100.00
62634;BME280;48704;50.534;6.442;2023-02-23T00:54:20;95074.00;;;7.19;100.00
62634;BME280;48704;50.534;6.442;2023-02-23T00:56:48;95073.72;;;7.08;100.00
62634;BME280;48704;50.534;6.442;2023-02-23T00:59:16;95072.75;;;7.20;100.00
62634;BME280;48704;50.534;6.442;2023-02-23T01:01:42;95078.91;;;7.24;100.00
62634;BME280;48704;50.534;6.442;2023-02-23T01:04:09;95071.84;;;7.14;100.00
62634;BME280;48704;50.534;6.442;2023-02-23T01:06:35;95074.38;;;7.03;100.00
62634;BME280;48704;50.534;6.442;2023-02-23T01:09:12;95071.16;;;6.95;100.00
62634;BME280;48704;50.534;6.442;2023-02-23T01:11:38;95076.41;;;6.93;100.00
62634;BME280;48704;50.534;6.442;2023-02-23T01:14:05;95076.56;;;6.90;100.00
62634;BME280;48704;50.534;6.442;2023-02-23T01:16:33;95072.84;;;7.02;100.00
62634;BME280;48704;50.534;6.442;2023-02-23T01:19:02;95067.63;;;6.95;100.00
62634;BME280;48704;50.534;6.442;2023-02-23T01:21:33;95065.16;;;6.97;100.00
62634;BME280;48704;50.534;6.442;2023-02-23T01:23:59;95077.59;;;7.01;100.00
62634;BME280;48704;50.534;6.442;2023-02-23T01:26:28;95075.72;;;7.08;100.00
62634;BME280;48704;50.534;6.442;2023-02-23T01:29:00;95074.03;;;7.10;100.00
62634;BME280;48704;50.534;6.442;2023-02-23T01:31:28;95080.56;;;6.89;100.00
62634;BME280;48704;50.534;6.442;2023-02-23T01:33:58;95070.00;;;7.11;100.00
62634;BME280;48704;50.534;6.442;2023-02-23T01:36:24;95072.47;;;7.09;100.00
62634;BME280;48704;50.534;6.442;2023-02-23T01:38:51;95079.22;;;7.17;100.00
62634;BME280;48704;50.534;6.442;2023-02-23T01:41:20;95083.00;;;7.05;100.00
62634;BME280;48704;50.534;6.442;2023-02-23T01:44:04;95073.00;;;6.98;100.00
62634;BME280;48704;50.534;6.442;2023-02-23T01:46:32;95071.63;;;6.94;100.00
62634;BME280;48704;50.534;6.442;2023-02-23T01:49:01;95072.41;;;6.94;100.00
62634;BME280;48704;50.534;6.442;2023-02-23T01:51:31;95072.41;;;6.94;100.00
62634;BME280;48704;50.534;6.442;2023-02-23T01:54:03;95074.41;;;6.85;100.00
62634;BME280;48704;50.534;6.442;2023-02-23T01:56:34;95070.47;;;6.67;100.00
62634;BME280;48704;50.534;6.442;2023-02-23T01:59:05;95063.97;;;6.70;100.00
62634;BME280;48704;50.534;6.442;2023-02-23T02:01:31;95079.66;;;6.83;100.00
62634;BME280;48704;50.534;6.442;2023-02-23T02:04:00;95068.44;;;6.77;100.00
62634;BME280;48704;50.534;6.442;2023-02-23T02:06:26;95066.78;;;6.61;100.00
62634;BME280;48704;50.534;6.442;2023-02-23T02:08:56;95061.53;;;6.72;100.00
62634;BME280;48704;50.534;6.442;2023-02-23T02:11:23;95062.63;;;6.66;100.00
62634;BME280;48704;50.534;6.442;2023-02-23T02:14:00;95056.34;;;6.56;100.00
62634;BME280;48704;50.534;6.442;2023-02-23T02:19:57;95065.56;;;6.62;100.00
62634;BME280;48704;50.534;6.442;2023-02-23T02:27:56;95066.81;;;6.43;100.00
62634;BME280;48704;50.534;6.442;2023-02-23T02:30:36;95059.44;;;6.49;100.00
62634;BME280;48704;50.534;6.442;2023-02-23T02:33:25;95065.41;;;6.57;100.00
62634;BME280;48704;50.534;6.442;2023-02-23T02:38:52;95064.34;;;6.63;100.00
62634;BME280;48704;50.534;6.442;2023-02-23T02:41:42;95069.09;;;6.63;100.00
62634;BME280;48704;50.534;6.442;2023-02-23T02:44:20;95064.03;;;6.52;100.00
62634;BME280;48704;50.534;6.442;2023-02-23T02:46:48;95064.97;;;6.49;100.00
62634;BME280;48704;50.534;6.442;2023-02-23T02:49:31;95064.03;;;6.43;100.00
62634;BME280;48704;50.534;6.442;2023-02-23T02:54:47;95050.53;;;5.81;100.00
62634;BME280;48704;50.534;6.442;2023-02-23T02:57:14;95060.03;;;5.71;100.00
62634;BME280;48704;50.534;6.442;2023-02-23T02:59:42;95057.63;;;5.91;100.00
62634;BME280;48704;50.534;6.442;2023-02-23T03:02:27;95056.84;;;6.00;100.00
62634;BME280;48704;50.534;6.442;2023-02-23T03:05:16;95050.84;;;6.11;100.00
62634;BME280;48704;50.534;6.442;2023-02-23T03:08:09;95057.31;;;6.08;100.00
62634;BME280;48704;50.534;6.442;2023-02-23T03:11:04;95061.31;;;6.16;100.00
62634;BME280;48704;50.534;6.442;2023-02-23T03:19:35;95069.00;;;6.21;100.00
62634;BME280;48704;50.534;6.442;2023-02-23T03:22:31;95067.31;;;6.14;100.00
62634;BME280;48704;50.534;6.442;2023-02-23T03:25:50;95064.06;;;6.07;100.00
62634;BME280;48704;50.534;6.442;2023-02-23T03:28:54;95070.97;;;6.02;100.00
62634;BME280;48704;50.534;6.442;2023-02-23T03:32:02;95072.06;;;6.04;100.00
62634;BME280;48704;50.534;6.442;2023-02-23T03:35:14;95067.75;;;6.03;100.00
62634;BME280;48704;50.534;6.442;2023-02-23T03:38:09;95069.00;;;5.93;100.00
62634;BME280;48704;50.534;6.442;2023-02-23T03:40:55;95067.00;;;6.03;100.00
62634;BME280;48704;50.534;6.442;2023-02-23T03:43:46;95068.63;;;5.73;100.00
62634;BME280;48704;50.534;6.442;2023-02-23T03:46:33;95059.31;;;6.16;100.00
62634;BME280;48704;50.534;6.442;2023-02-23T03:49:20;95070.53;;;6.13;100.00
62634;BME280;48704;50.534;6.442;2023-02-23T03:52:12;95069.28;;;6.04;100.00
62634;BME280;48704;50.534;6.442;2023-02-23T03:55:00;95075.38;;;5.54;100.00
62634;BME280;48704;50.534;6.442;2023-02-23T03:57:49;95075.75;;;6.01;100.00
62634;BME280;48704;50.534;6.442;2023-02-23T04:00:38;95070.81;;;5.87;100.00
62634;BME280;48704;50.534;6.442;2023-02-23T04:03:26;95075.69;;;5.74;100.00
62634;BME280;48704;50.534;6.442;2023-02-23T04:06:12;95072.69;;;5.90;100.00
62634;BME280;48704;50.534;6.442;2023-02-23T04:09:00;95078.06;;;5.94;100.00
62634;BME280;48704;50.534;6.442;2023-02-23T04:12:01;95075.13;;;5.97;100.00
62634;BME280;48704;50.534;6.442;2023-02-23T04:17:24;95079.75;;;5.91;100.00
62634;BME280;48704;50.534;6.442;2023-02-23T04:19:52;95083.59;;;6.21;100.00
62634;BME280;48704;50.534;6.442;2023-02-23T04:22:18;95083.59;;;5.94;100.00
62634;BME280;48704;50.534;6.442;2023-02-23T04:24:43;95081.28;;;6.01;100.00
62634;BME280;48704;50.534;6.442;2023-02-23T04:27:10;95082.53;;;5.91;100.00
62634;BME280;48704;50.534;6.442;2023-02-23T04:29:35;95074.75;;;5.68;100.00
62634;BME280;48704;50.534;6.442;2023-02-23T04:32:01;95075.38;;;5.72;100.00
62634;BME280;48704;50.534;6.442;2023-02-23T04:34:26;95078.66;;;6.07;100.00
62634;BME280;48704;50.534;6.442;2023-02-23T04:36:51;95082.50;;;6.10;100.00
62634;BME280;48704;50.534;6.442;2023-02-23T04:39:16;95090.19;;;6.15;100.00
62634;BME280;48704;50.534;6.442;2023-02-23T04:41:42;95094.50;;;6.07;100.00
62634;BME280;48704;50.534;6.442;2023-02-23T04:44:07;95088.00;;;5.82;100.00
62634;BME280;48704;50.534;6.442;2023-02-23T04:46:32;95091.38;;;5.86;100.00
62634;BME280;48704;50.534;6.442;2023-02-23T04:48:58;95089.84;;;5.85;100.00
62634;BME280;48704;50.534;6.442;2023-02-23T04:51:23;95095.81;;;5.75;100.00
62634;BME280;48704;50.534;6.442;2023-02-23T04:53:48;95099.69;;;5.95;100.00
62634;BME280;48704;50.534;6.442;2023-02-23T04:56:14;95098.47;;;5.87;100.00
62634;BME280;48704;50.534;6.442;2023-02-23T04:58:40;95102.78;;;5.97;100.00
62634;BME280;48704;50.534;6.442;2023-02-23T05:01:06;95091.75;;;6.16;100.00
62634;BME280;48704;50.534;6.442;2023-02-23T05:03:34;95097.13;;;6.10;100.00
62634;BME280;48704;50.534;6.442;2023-02-23T05:05:59;95101.69;;;5.95;100.00
62634;BME280;48704;50.534;6.442;2023-02-23T05:08:24;95093.50;;;5.73;100.00
62634;BME280;48704;50.534;6.442;2023-02-23T05:10:50;95100.31;;;5.99;100.00
62634;BME280;48704;50.534;6.442;2023-02-23T05:13:15;95102.81;;;6.16;100.00
62634;BME280;48704;50.534;6.442;2023-02-23T05:15:40;95104.31;;;5.98;100.00
62634;BME280;48704;50.534;6.442;2023-02-23T05:18:05;95098.28;;;5.72;100.00
62634;BME280;48704;50.534;6.442;2023-02-23T05:20:32;95107.72;;;5.44;100.00
62634;BME280;48704;50.534;6.442;2023-02-23T05:22:57;95111.38;;;5.99;100.00
62634;BME280;48704;50.534;6.442;2023-02-23T05:25:23;95108.94;;;6.01;100.00
62634;BME280;48704;50.534;6.442;2023-02-23T05:27:48;95112.94;;;6.00;100.00
62634;BME280;48704;50.534;6.442;2023-02-23T05:30:14;95114.09;;;5.72;100.00
62634;BME280;48704;50.534;6.442;2023-02-23T05:32:39;95107.97;;;5.86;100.00
62634;BME280;48704;50.534;6.442;2023-02-23T05:35:05;95112.25;;;5.78;100.00
62634;BME280;48704;50.534;6.442;2023-02-23T05:37:31;95109.81;;;5.80;100.00
62634;BME280;48704;50.534;6.442;2023-02-23T05:39:57;95111.19;;;5.85;100.00
62634;BME280;48704;50.534;6.442;2023-02-23T05:42:23;95111.97;;;5.85;100.00
62634;BME280;48704;50.534;6.442;2023-02-23T05:44:48;95118.16;;;5.89;100.00
62634;BME280;48704;50.534;6.442;2023-02-23T05:47:13;95111.84;;;5.89;100.00
62634;BME280;48704;50.534;6.442;2023-02-23T05:49:38;95113.22;;;6.02;100.00
62634;BME280;48704;50.534;6.442;2023-02-23T05:52:04;95112.63;;;6.08;100.00
62634;BME280;48704;50.534;6.442;2023-02-23T05:54:29;95109.91;;;5.58;100.00
62634;BME280;48704;50.534;6.442;2023-02-23T05:56:55;95113.16;;;5.57;100.00
62634;BME280;48704;50.534;6.442;2023-02-23T05:59:21;95116.66;;;5.48;100.00
62634;BME280;48704;50.534;6.442;2023-02-23T06:01:46;95115.78;;;5.79;100.00
62634;BME280;48704;50.534;6.442;2023-02-23T06:04:11;95120.28;;;5.94;100.00
62634;BME280;48704;50.534;6.442;2023-02-23T06:06:38;95118.00;;;5.93;100.00
62634;BME280;48704;50.534;6.442;2023-02-23T06:09:04;95124.66;;;5.64;100.00
62634;BME280;48704;50.534;6.442;2023-02-23T06:11:29;95111.84;;;5.89;100.00
62634;BME280;48704;50.534;6.442;2023-02-23T06:13:57;95123.69;;;5.89;100.00
62634;BME280;48704;50.534;6.442;2023-02-23T06:16:23;95125.78;;;5.85;100.00
62634;BME280;48704;50.534;6.442;2023-02-23T06:18:49;95129.84;;;5.93;100.00
62634;BME280;48704;50.534;6.442;2023-02-23T06:21:14;95125.00;;;5.76;100.00
62634;BME280;48704;50.534;6.442;2023-02-23T06:23:39;95127.66;;;5.88;100.00
62634;BME280;48704;50.534;6.442;2023-02-23T06:26:05;95129.56;;;5.60;100.00
62634;BME280;48704;50.534;6.442;2023-02-23T06:28:30;95120.94;;;5.49;100.00
62634;BME280;48704;50.534;6.442;2023-02-23T06:30:56;95116.00;;;5.44;100.00
62634;BME280;48704;50.534;6.442;2023-02-23T06:33:22;95121.72;;;5.59;100.00
62634;BME280;48704;50.534;6.442;2023-02-23T06:35:48;95130.13;;;5.95;100.00
62634;BME280;48704;50.534;6.442;2023-02-23T06:38:13;95131.81;;;6.02;100.00
62634;BME280;48704;50.534;6.442;2023-02-23T06:40:38;95131.38;;;6.03;100.00
62634;BME280;48704;50.534;6.442;2023-02-23T06:43:07;95137.47;;;5.80;100.00
62634;BME280;48704;50.534;6.442;2023-02-23T06:45:32;95139.13;;;5.78;100.00
62634;BME280;48704;50.534;6.442;2023-02-23T06:48:00;95148.56;;;5.98;100.00
62634;BME280;48704;50.534;6.442;2023-02-23T06:50:26;95147.66;;;6.01;100.00
62634;BME280;48704;50.534;6.442;2023-02-23T06:52:51;95148.59;;;6.08;100.00
62634;BME280;48704;50.534;6.442;2023-02-23T06:55:17;95154.44;;;6.10;100.00
62634;BME280;48704;50.534;6.442;2023-02-23T06:57:42;95152.59;;;6.07;100.00
62634;BME280;48704;50.534;6.442;2023-02-23T07:00:10;95156.25;;;6.03;100.00
62634;BME280;48704;50.534;6.442;2023-02-23T07:02:39;95156.09;;;5.89;100.00
62634;BME280;48704;50.534;6.442;2023-02-23T07:05:05;95159.03;;;6.13;100.00
62634;BME280;48704;50.534;6.442;2023-02-23T07:07:30;95167.66;;;6.15;100.00
62634;BME280;48704;50.534;6.442;2023-02-23T07:09:57;95167.66;;;6.15;100.00
62634;BME280;48704;50.534;6.442;2023-02-23T07:12:22;95176.25;;;6.17;100.00
62634;BME280;48704;50.534;6.442;2023-02-23T07:14:47;95180.25;;;6.16;100.00
62634;BME280;48704;50.534;6.442;2023-02-23T07:17:12;95184.84;;;6.10;100.00
62634;BME280;48704;50.534;6.442;2023-02-23T07:19:38;95189.50;;;6.22;100.00
62634;BME280;48704;50.534;6.442;2023-02-23T07:22:03;95188.72;;;6.21;100.00
62634;BME280;48704;50.534;6.442;2023-02-23T07:24:29;95185.66;;;6.28;100.00
62634;BME280;48704;50.534;6.442;2023-02-23T07:26:54;95185.97;;;6.30;100.00
62634;BME280;48704;50.534;6.442;2023-02-23T07:29:20;95195.06;;;6.31;100.00
62634;BME280;48704;50.534;6.442;2023-02-23T07:31:48;95199.31;;;6.32;100.00
62634;BME280;48704;50.534;6.442;2023-02-23T07:34:14;95202.28;;;6.28;100.00
62634;BME280;48704;50.534;6.442;2023-02-23T07:36:39;95204.09;;;6.31;100.00
62634;BME280;48704;50.534;6.442;2023-02-23T07:39:04;95198.56;;;6.31;100.00
62634;BME280;48704;50.534;6.442;2023-02-23T07:41:30;95194.72;;;6.38;100.00
62634;BME280;48704;50.534;6.442;2023-02-23T07:43:57;95198.13;;;6.42;100.00
62634;BME280;48704;50.534;6.442;2023-02-23T07:46:23;95206.72;;;6.44;100.00
62634;BME280;48704;50.534;6.442;2023-02-23T07:48:48;95199.81;;;6.49;100.00
62634;BME280;48704;50.534;6.442;2023-02-23T07:51:14;95202.44;;;6.52;100.00
62634;BME280;48704;50.534;6.442;2023-02-23T07:53:41;95208.88;;;6.49;100.00
62634;BME280;48704;50.534;6.442;2023-02-23T07:56:08;95212.91;;;6.57;100.00
62634;BME280;48704;50.534;6.442;2023-02-23T07:58:38;95199.97;;;6.54;100.00
62634;BME280;48704;50.534;6.442;2023-02-23T08:01:04;95206.88;;;6.50;100.00
62634;BME280;48704;50.534;6.442;2023-02-23T08:03:29;95207.81;;;6.56;100.00
62634;BME280;48704;50.534;6.442;2023-02-23T08:05:55;95214.91;;;6.57;100.00
62634;BME280;48704;50.534;6.442;2023-02-23T08:08:20;95215.97;;;6.59;100.00
62634;BME280;48704;50.534;6.442;2023-02-23T08:10:46;95210.72;;;6.43;100.00
62634;BME280;48704;50.534;6.442;2023-02-23T08:13:12;95219.66;;;6.47;100.00
62634;BME280;48704;50.534;6.442;2023-02-23T08:15:38;95224.09;;;6.45;100.00
62634;BME280;48704;50.534;6.442;2023-02-23T08:18:03;95224.84;;;6.36;100.00
62634;BME280;48704;50.534;6.442;2023-02-23T08:20:29;95231.44;;;6.20;100.00
62634;BME280;48704;50.534;6.442;2023-02-23T08:22:55;95226.06;;;6.17;100.00
62634;BME280;48704;50.534;6.442;2023-02-23T08:25:21;95229.47;;;6.21;100.00
62634;BME280;48704;50.534;6.442;2023-02-23T08:27:47;95236.16;;;6.01;100.00
62634;BME280;48704;50.534;6.442;2023-02-23T08:30:13;95230.06;;;6.16;100.00
62634;BME280;48704;50.534;6.442;2023-02-23T08:32:39;95234.38;;;6.17;100.00
62634;BME280;48704;50.534;6.442;2023-02-23T08:35:05;95228.72;;;6.29;100.00
62634;BME280;48704;50.534;6.442;2023-02-23T08:37:32;95226.72;;;6.30;100.00
62634;BME280;48704;50.534;6.442;2023-02-23T08:39:57;95239.16;;;6.34;100.00
62634;BME280;48704;50.534;6.442;2023-02-23T08:42:23;95229.63;;;6.35;100.00
62634;BME280;48704;50.534;6.442;2023-02-23T08:44:48;95231.94;;;6.46;100.00
62634;BME280;48704;50.534;6.442;2023-02-23T08:47:14;95234.25;;;6.48;100.00
62634;BME280;48704;50.534;6.442;2023-02-23T08:49:41;95232.56;;;6.50;100.00
62634;BME280;48704;50.534;6.442;2023-02-23T08:52:06;95232.88;;;6.52;100.00
62634;BME280;48704;50.534;6.442;2023-02-23T08:54:31;95243.50;;;6.72;100.00
62634;BME280;48704;50.534;6.442;2023-02-23T08:56:56;95243.34;;;6.76;100.00
62634;BME280;48704;50.534;6.442;2023-02-23T08:59:22;95245.34;;;6.84;100.00
62634;BME280;48704;50.534;6.442;2023-02-23T09:01:47;95251.19;;;6.86;100.00
62634;BME280;48704;50.534;6.442;2023-02-23T09:04:13;95253.50;;;6.97;100.00
62634;BME280;48704;50.534;6.442;2023-02-23T09:06:38;95257.34;;;6.90;100.00
62634;BME280;48704;50.534;6.442;2023-02-23T09:09:05;95261.50;;;6.58;100.00
62634;BME280;48704;50.534;6.442;2023-02-23T09:11:31;95259.66;;;6.64;100.00
62634;BME280;48704;50.534;6.442;2023-02-23T09:13:56;95258.25;;;6.51;100.00
62634;BME280;48704;50.534;6.442;2023-02-23T09:16:21;95259.63;;;6.46;100.00
62634;BME280;48704;50.534;6.442;2023-02-23T09:18:47;95255.97;;;6.58;100.00
62634;BME280;48704;50.534;6.442;2023-02-23T09:21:14;95262.72;;;6.57;100.00
62634;BME280;48704;50.534;6.442;2023-02-23T09:23:43;95264.28;;;6.67;100.00
62634;BME280;48704;50.534;6.442;2023-02-23T09:26:09;95266.13;;;6.80;100.00
62634;BME280;48704;50.534;6.442;2023-02-23T09:28:35;95263.66;;;6.82;100.00
62634;BME280;48704;50.534;6.442;2023-02-23T09:31:05;95265.97;;;6.65;100.00
62634;BME280;48704;50.534;6.442;2023-02-23T09:33:31;95271.28;;;6.23;100.00
62634;BME280;48704;50.534;6.442;2023-02-23T09:35:56;95271.91;;;6.36;100.00
62634;BME280;48704;50.534;6.442;2023-02-23T09:38:22;95276.56;;;6.57;100.00
62634;BME280;48704;50.534;6.442;2023-02-23T09:40:51;95271.50;;;6.56;100.00
62634;BME280;48704;50.534;6.442;2023-02-23T09:43:40;95271.97;;;6.63;100.00
62634;BME280;48704;50.534;6.442;2023-02-23T09:48:58;95283.84;;;6.15;100.00
62634;BME280;48704;50.534;6.442;2023-02-23T09:51:25;95292.84;;;6.46;100.00
62634;BME280;48704;50.534;6.442;2023-02-23T09:53:54;95291.97;;;6.67;100.00
62634;BME280;48704;50.534;6.442;2023-02-23T09:56:28;95288.41;;;6.76;100.00
62634;BME280;48704;50.534;6.442;2023-02-23T09:58:57;95287.97;;;6.78;100.00
62634;BME280;48704;50.534;6.442;2023-02-23T10:06:53;95296.84;;;6.45;100.00
62634;BME280;48704;50.534;6.442;2023-02-23T10:22:38;95301.22;;;6.92;100.00
62634;BME280;48704;50.534;6.442;2023-02-23T10:25:10;95302.31;;;7.03;100.00
62634;BME280;48704;50.534;6.442;2023-02-23T10:27:40;95302.91;;;7.26;100.00
62634;BME280;48704;50.534;6.442;2023-02-23T10:30:32;95305.38;;;6.96;100.00
62634;BME280;48704;50.534;6.442;2023-02-23T10:33:13;95306.13;;;6.88;100.00
62634;BME280;48704;50.534;6.442;2023-02-23T10:35:41;95307.97;;;6.91;100.00
62634;BME280;48704;50.534;6.442;2023-02-23T10:38:13;95307.06;;;6.85;100.00
62634;BME280;48704;50.534;6.442;2023-02-23T10:40:39;95313.22;;;6.89;100.00
62634;BME280;48704;50.534;6.442;2023-02-23T10:43:06;95313.81;;;6.84;100.00
62634;BME280;48704;50.534;6.442;2023-02-23T10:45:38;95307.34;;;6.78;100.00
62634;BME280;48704;50.534;6.442;2023-02-23T10:48:21;95321.16;;;6.68;100.00
62634;BME280;48704;50.534;6.442;2023-02-23T10:50:51;95314.31;;;7.00;100.00
62634;BME280;48704;50.534;6.442;2023-02-23T10:56:06;95312.28;;;6.92;100.00
62634;BME280;48704;50.534;6.442;2023-02-23T10:58:52;95321.97;;;6.87;100.00
62634;BME280;48704;50.534;6.442;2023-02-23T11:01:37;95309.22;;;7.26;100.00
62634;BME280;48704;50.534;6.442;2023-02-23T11:04:32;95315.31;;;7.67;100.00
62634;BME280;48704;50.534;6.442;2023-02-23T11:07:22;95319.94;;;7.70;100.00
62634;BME280;48704;50.534;6.442;2023-02-23T11:09:48;95317.78;;;7.65;100.00
62634;BME280;48704;50.534;6.442;2023-02-23T11:12:16;95316.09;;;7.67;100.00
62634;BME280;48704;50.534;6.442;2023-02-23T11:14:46;95311.97;;;7.08;100.00
62634;BME280;48704;50.534;6.442;2023-02-23T11:17:32;95311.63;;;7.61;100.00
62634;BME280;48704;50.534;6.442;2023-02-23T11:20:00;95315.00;;;7.65;100.00
62634;BME280;48704;50.534;6.442;2023-02-23T11:22:29;95303.97;;;7.19;100.00
62634;BME280;48704;50.534;6.442;2023-02-23T11:24:55;95309.22;;;6.90;100.00
62634;BME280;48704;50.534;6.442;2023-02-23T11:27:25;95312.09;;;6.77;100.00
62634;BME280;48704;50.534;6.442;2023-02-23T11:29:54;95305.84;;;6.95;100.00
62634;BME280;48704;50.534;6.442;2023-02-23T11:32:25;95311.03;;;6.65;100.00
62634;BME280;48704;50.534;6.442;2023-02-23T11:37:46;95311.94;;;6.62;100.00
62634;BME280;48704;50.534;6.442;2023-02-23T11:40:26;95314.16;;;7.04;100.00
62634;BME280;48704;50.534;6.442;2023-02-23T11:45:33;95299.25;;;6.25;100.00
62634;BME280;48704;50.534;6.442;2023-02-23T11:48:02;95304.72;;;6.07;100.00
62634;BME280;48704;50.534;6.442;2023-02-23T11:50:30;95299.16;;;6.47;100.00
62634;BME280;48704;50.534;6.442;2023-02-23T11:53:04;95305.97;;;6.15;100.00
62634;BME280;48704;50.534;6.442;2023-02-23T11:55:31;95295.91;;;5.90;100.00
62634;BME280;48704;50.534;6.442;2023-02-23T12:00:55;95300.66;;;5.89;100.00
62634;BME280;48704;50.534;6.442;2023-02-23T12:03:22;95303.44;;;5.98;100.00
62634;BME280;48704;50.534;6.442;2023-02-23T12:05:53;95302.44;;;5.83;100.00
62634;BME280;48704;50.534;6.442;2023-02-23T12:08:32;95299.44;;;5.90;100.00
62634;BME280;48704;50.534;6.442;2023-02-23T12:11:01;95298.28;;;6.10;100.00
62634;BME280;48704;50.534;6.442;2023-02-23T12:13:38;95300.09;;;6.03;100.00
62634;BME280;48704;50.534;6.442;2023-02-23T12:18:55;95294.50;;;5.94;100.00
62634;BME280;48704;50.534;6.442;2023-02-23T12:21:36;95296.72;;;6.09;100.00
62634;BME280;48704;50.534;6.442;2023-02-23T12:26:34;95298.38;;;6.46;100.00
62634;BME280;48704;50.534;6.442;2023-02-23T12:29:17;95294.25;;;6.69;100.00
62634;BME280;48704;50.534;6.442;2023-02-23T12:31:56;95290.09;;;6.74;100.00
62634;BME280;48704;50.534;6.442;2023-02-23T12:36:59;95291.69;;;7.02;100.00
62634;BME280;48704;50.534;6.442;2023-02-23T12:39:37;95282.13;;;7.12;100.00
62634;BME280;48704;50.534;6.442;2023-02-23T12:42:21;95279.81;;;6.74;100.00
62634;BME280;48704;50.534;6.442;2023-02-23T12:44:52;95273.38;;;6.95;100.00
62634;BME280;48704;50.534;6.442;2023-02-23T12:50:02;95282.72;;;6.70;100.00
62634;BME280;48704;50.534;6.442;2023-02-23T12:52:35;95289.19;;;6.67;100.00
62634;BME280;48704;50.534;6.442;2023-02-23T12:55:02;95284.28;;;6.62;100.00
62634;BME280;48704;50.534;6.442;2023-02-23T12:57:41;95287.88;;;6.23;100.00
62634;BME280;48704;50.534;6.442;2023-02-23T13:05:54;95295.81;;;6.12;100.00
62634;BME280;48704;50.534;6.442;2023-02-23T13:11:06;95282.31;;;6.14;100.00
62634;BME280;48704;50.534;6.442;2023-02-23T13:13:43;95286.69;;;6.42;100.00
62634;BME280;48704;50.534;6.442;2023-02-23T13:16:22;95283.00;;;6.45;100.00
62634;BME280;48704;50.534;6.442;2023-02-23T13:21:41;95282.38;;;5.92;100.00
62634;BME280;48704;50.534;6.442;2023-02-23T13:24:16;95282.00;;;5.81;100.00
62634;BME280;48704;50.534;6.442;2023-02-23T13:32:00;95290.56;;;6.04;100.00
62634;BME280;48704;50.534;6.442;2023-02-23T13:34:34;95286.66;;;5.62;100.00
62634;BME280;48704;50.534;6.442;2023-02-23T13:37:05;95288.38;;;5.68;100.00
62634;BME280;48704;50.534;6.442;2023-02-23T13:39:42;95293.09;;;5.59;100.00
62634;BME280;48704;50.534;6.442;2023-02-23T13:45:21;95294.56;;;5.20;100.00
62634;BME280;48704;50.534;6.442;2023-02-23T13:47:57;95289.72;;;5.64;100.00
62634;BME280;48704;50.534;6.442;2023-02-23T13:50:31;95295.13;;;5.67;100.00
62634;BME280;48704;50.534;6.442;2023-02-23T13:53:01;95295.25;;;5.64;100.00
62634;BME280;48704;50.534;6.442;2023-02-23T13:55:47;95297.06;;;5.58;100.00
62634;BME280;48704;50.534;6.442;2023-02-23T13:58:26;95295.69;;;5.31;100.00
62634;BME280;48704;50.534;6.442;2023-02-23T14:01:06;95300.47;;;5.09;100.00
62634;BME280;48704;50.534;6.442;2023-02-23T14:03:38;95309.00;;;5.77;100.00
62634;BME280;48704;50.534;6.442;2023-02-23T14:06:05;95309.09;;;5.20;100.00
62634;BME280;48704;50.534;6.442;2023-02-23T14:08:35;95300.63;;;5.36;100.00
62634;BME280;48704;50.534;6.442;2023-02-23T14:11:02;95302.47;;;5.61;100.00
62634;BME280;48704;50.534;6.442;2023-02-23T14:13:58;95296.00;;;5.86;100.00
62634;BME280;48704;50.534;6.442;2023-02-23T14:16:24;95290.38;;;5.90;100.00
62634;BME280;48704;50.534;6.442;2023-02-23T14:21:50;95299.28;;;6.43;100.00
62634;BME280;48704;50.534;6.442;2023-02-23T14:24:23;95309.72;;;6.39;100.00
62634;BME280;48704;50.534;6.442;2023-02-23T14:29:29;95308.84;;;6.51;100.00
62634;BME280;48704;50.534;6.442;2023-02-23T14:34:57;95303.66;;;6.13;100.00
62634;BME280;48704;50.534;6.442;2023-02-23T14:37:37;95317.59;;;6.00;100.00
62634;BME280;48704;50.534;6.442;2023-02-23T14:40:17;95313.59;;;6.01;100.00
62634;BME280;48704;50.534;6.442;2023-02-23T14:42:49;95308.78;;;5.40;100.00
62634;BME280;48704;50.534;6.442;2023-02-23T14:45:25;95307.66;;;5.59;100.00
62634;BME280;48704;50.534;6.442;2023-02-23T14:48:00;95300.16;;;6.22;100.00
62634;BME280;48704;50.534;6.442;2023-02-23T14:50:30;95306.38;;;6.44;100.00
62634;BME280;48704;50.534;6.442;2023-02-23T14:52:58;95306.78;;;6.33;100.00